Terminal Aerodrome Forecast
Issued by NWS

Home | Current Version | Previous Version | Text Only | Print | Product List | Glossary On
Versions: 1 2 3 4 5 6 7 8 9 10 11 12 13 14
286
FTUS43 KMPX 220520
TAFRNH
TAF
KRNH 220520Z 2206/2306 32009KT P6SM SKC
      TEMPO 2206/2210 SCT025 BKN035
     FM221000 25004KT P6SM FEW250
     FM221800 19011G16KT P6SM BKN050 OVC150
     FM230000 18006KT P6SM OVC050=

USA.gov is the U.S. government's official web portal to all federal, state and local government web resources and services.